createdAt,value
2023-03-07T00:02:45.839Z,61.10
2023-03-07T00:05:51.916Z,55.58
2023-03-07T00:09:05.043Z,53.87
2023-03-07T00:12:12.229Z,47.89
2023-03-07T00:15:19.298Z,43.30
2023-03-07T00:18:25.281Z,43.86
2023-03-07T00:21:32.561Z,43.25
2023-03-07T00:24:41.351Z,42.09
2023-03-07T00:27:48.132Z,40.01
2023-03-07T00:30:54.018Z,40.92
2023-03-07T00:34:00.765Z,39.87
2023-03-07T00:37:09.763Z,40.60
2023-03-07T00:40:20.416Z,40.31
2023-03-07T00:43:26.384Z,42.74
2023-03-07T00:46:33.231Z,43.35
2023-03-07T00:49:39.293Z,42.02
2023-03-07T00:52:46.256Z,42.04
2023-03-07T00:56:05.794Z,41.21
2023-03-07T00:59:13.317Z,39.41
2023-03-07T01:02:25.238Z,38.48
2023-03-07T01:05:32.179Z,35.90
2023-03-07T01:08:39.218Z,34.65
2023-03-07T01:11:48.892Z,34.01
2023-03-07T01:14:55.125Z,34.42
2023-03-07T01:18:02.524Z,34.58
2023-03-07T01:21:17.458Z,38.36
2023-03-07T01:24:24.254Z,37.41
2023-03-07T01:27:33.767Z,35.82
2023-03-07T01:30:40.871Z,34.62
2023-03-07T01:33:47.252Z,35.23
2023-03-07T01:36:54.573Z,36.68
2023-03-07T01:40:00.602Z,36.19
2023-03-07T01:43:30.194Z,35.09
2023-03-07T01:46:50.249Z,34.02
2023-03-07T01:50:00.023Z,35.88
2023-03-07T01:53:06.584Z,35.04
2023-03-07T01:56:15.690Z,33.75
2023-03-07T01:59:34.921Z,34.40
2023-03-07T02:02:48.758Z,36.22
2023-03-07T02:06:05.585Z,37.01
2023-03-07T02:09:20.806Z,38.81
2023-03-07T02:12:27.646Z,42.70
2023-03-07T02:15:38.320Z,43.93
2023-03-07T02:18:50.660Z,44.62
2023-03-07T02:22:12.546Z,40.82
2023-03-07T02:25:33.608Z,38.91
2023-03-07T02:28:52.212Z,36.49
2023-03-07T02:32:00.576Z,35.21
2023-03-07T02:35:19.179Z,34.01
2023-03-07T02:38:29.186Z,35.71
2023-03-07T02:41:41.219Z,37.43
2023-03-07T02:45:04.535Z,37.61
2023-03-07T02:48:14.333Z,37.55
2023-03-07T02:51:20.356Z,36.13
2023-03-07T02:54:28.104Z,36.56
2023-03-07T02:57:37.435Z,35.23
2023-03-07T03:00:48.117Z,37.76
2023-03-07T03:03:54.285Z,38.70
2023-03-07T03:07:07.830Z,35.78
2023-03-07T03:10:15.302Z,33.50
2023-03-07T03:13:31.928Z,32.73
2023-03-07T03:16:40.547Z,30.75
2023-03-07T03:19:47.951Z,29.37
2023-03-07T03:22:55.810Z,29.18
2023-03-07T03:26:14.832Z,28.96
2023-03-07T03:29:21.352Z,29.22
2023-03-07T03:32:30.825Z,28.67
2023-03-07T03:35:36.821Z,29.67
2023-03-07T03:38:49.833Z,30.36
2023-03-07T03:42:09.979Z,30.23
2023-03-07T03:45:17.886Z,29.70
2023-03-07T03:48:26.986Z,29.97
2023-03-07T03:51:34.897Z,29.20
2023-03-07T03:54:40.984Z,28.78
2023-03-07T03:57:47.766Z,29.72
2023-03-07T04:00:56.647Z,29.71
2023-03-07T04:04:06.523Z,29.34
2023-03-07T04:07:12.791Z,30.24
2023-03-07T04:10:20.316Z,30.28
2023-03-07T04:13:26.265Z,30.22
2023-03-07T04:16:33.073Z,32.12
2023-03-07T04:19:42.262Z,32.55
2023-03-07T04:22:49.195Z,35.73
2023-03-07T04:25:59.907Z,35.60
2023-03-07T04:29:07.832Z,40.49
2023-03-07T04:32:19.265Z,34.90
2023-03-07T04:35:28.793Z,32.45
2023-03-07T04:38:35.004Z,32.16
2023-03-07T04:41:42.947Z,31.89
2023-03-07T04:44:55.436Z,31.50
2023-03-07T04:48:04.974Z,33.33
2023-03-07T04:51:14.920Z,33.54
2023-03-07T04:54:22.266Z,34.59
2023-03-07T04:57:30.062Z,36.91
2023-03-07T05:00:37.279Z,34.73
2023-03-07T05:03:43.609Z,33.91
2023-03-07T05:07:06.819Z,32.28
2023-03-07T05:10:15.138Z,30.15
2023-03-07T05:13:28.848Z,28.20
2023-03-07T05:16:40.698Z,27.93
2023-03-07T05:19:47.748Z,26.73
2023-03-07T05:23:02.023Z,27.47
2023-03-07T05:26:09.787Z,26.78
2023-03-07T05:29:17.585Z,27.45
2023-03-07T05:32:25.041Z,28.33
2023-03-07T05:35:31.558Z,27.62
2023-03-07T05:38:42.998Z,30.19
2023-03-07T05:41:49.075Z,31.28
2023-03-07T05:44:56.331Z,33.61
2023-03-07T05:48:02.947Z,35.77
2023-03-07T05:51:11.996Z,34.87
2023-03-07T05:54:21.545Z,34.34
2023-03-07T05:57:28.848Z,32.53
2023-03-07T06:00:35.126Z,31.45
2023-03-07T06:03:43.187Z,31.17
2023-03-07T06:06:49.818Z,32.41
2023-03-07T06:09:59.237Z,33.53
2023-03-07T06:13:05.332Z,34.51
2023-03-07T06:16:12.577Z,35.08
2023-03-07T06:19:23.060Z,35.21
2023-03-07T06:22:34.751Z,36.05
2023-03-07T06:25:44.534Z,34.44
2023-03-07T06:28:56.443Z,34.43
2023-03-07T06:32:05.031Z,32.41
2023-03-07T06:35:13.344Z,31.50
2023-03-07T06:38:21.404Z,35.14
2023-03-07T06:41:31.001Z,31.76
2023-03-07T06:44:42.916Z,32.77
2023-03-07T06:47:50.949Z,33.76
2023-03-07T06:50:56.898Z,32.49
2023-03-07T06:54:04.129Z,33.49
2023-03-07T06:57:12.792Z,32.38
2023-03-07T07:00:22.956Z,30.33
2023-03-07T07:03:29.530Z,31.93
2023-03-07T07:06:39.294Z,34.43
2023-03-07T07:09:45.449Z,29.23
2023-03-07T07:12:56.892Z,28.76
2023-03-07T07:16:09.011Z,29.11
2023-03-07T07:19:18.463Z,32.06
2023-03-07T07:22:26.426Z,32.04
2023-03-07T07:25:33.219Z,27.40
2023-03-07T07:28:41.845Z,27.95
2023-03-07T07:31:50.088Z,27.35
2023-03-07T07:34:58.110Z,27.11
2023-03-07T07:38:04.995Z,28.72
2023-03-07T07:41:10.897Z,27.74
2023-03-07T07:44:20.516Z,28.33
2023-03-07T07:47:36.177Z,25.42
2023-03-07T07:50:43.293Z,26.35
2023-03-07T07:53:49.389Z,27.48
2023-03-07T07:57:00.860Z,27.45
2023-03-07T08:00:13.049Z,27.11
2023-03-07T08:03:20.243Z,27.18
2023-03-07T08:06:31.107Z,28.32
2023-03-07T08:09:39.057Z,30.85
2023-03-07T08:12:45.690Z,28.92
2023-03-07T08:15:55.133Z,28.84
2023-03-07T08:19:02.119Z,27.00
2023-03-07T08:22:08.946Z,25.82
2023-03-07T08:25:25.203Z,25.76
2023-03-07T08:28:32.157Z,26.95
2023-03-07T08:31:40.630Z,27.31
2023-03-07T08:34:47.635Z,26.01
2023-03-07T08:37:59.835Z,25.74
2023-03-07T08:41:14.064Z,25.27
2023-03-07T08:44:20.040Z,26.64
2023-03-07T08:47:35.972Z,26.07
2023-03-07T08:50:43.095Z,25.01
2023-03-07T08:53:50.393Z,24.95
2023-03-07T08:57:02.911Z,25.05
2023-03-07T09:00:18.181Z,24.64
2023-03-07T09:03:26.712Z,23.92
2023-03-07T09:06:33.797Z,23.46
2023-03-07T09:09:45.909Z,24.52
2023-03-07T09:12:55.451Z,24.36
2023-03-07T09:16:01.482Z,22.77
2023-03-07T09:19:10.935Z,23.57
2023-03-07T09:22:16.829Z,22.35
2023-03-07T09:25:23.577Z,21.11
2023-03-07T09:28:32.619Z,22.52
2023-03-07T09:31:45.982Z,22.24
2023-03-07T09:34:55.759Z,24.30
2023-03-07T09:38:04.951Z,23.82
2023-03-07T09:41:39.370Z,24.22
2023-03-07T09:45:23.290Z,24.27
2023-03-07T09:49:15.595Z,31.48
2023-03-07T09:52:31.126Z,29.34
2023-03-07T09:55:37.489Z,22.03
2023-03-07T09:58:58.124Z,19.68
2023-03-07T10:02:18.599Z,18.04
2023-03-07T10:05:40.734Z,15.51
2023-03-07T10:08:49.367Z,15.63
2023-03-07T10:12:42.039Z,18.74
2023-03-07T10:15:53.693Z,15.13
2023-03-07T10:19:17.077Z,15.95
2023-03-07T10:22:43.062Z,15.20
2023-03-07T10:25:59.916Z,19.41
2023-03-07T10:29:19.753Z,17.78
2023-03-07T10:32:39.986Z,18.38
2023-03-07T10:35:55.169Z,16.51
2023-03-07T10:39:21.314Z,17.99
2023-03-07T10:42:46.360Z,18.68
2023-03-07T10:45:55.907Z,17.66
2023-03-07T10:49:17.182Z,17.46
2023-03-07T10:52:38.087Z,16.87
2023-03-07T10:55:47.019Z,15.80
2023-03-07T10:59:09.672Z,16.37
2023-03-07T11:02:40.554Z,15.19
2023-03-07T11:05:52.395Z,17.13
2023-03-07T11:08:59.745Z,18.34
2023-03-07T11:12:22.035Z,17.30
2023-03-07T11:15:30.760Z,16.64
2023-03-07T11:18:46.536Z,17.98
2023-03-07T11:21:58.503Z,18.66
2023-03-07T11:25:19.224Z,17.98
2023-03-07T11:28:33.695Z,18.69
2023-03-07T11:32:00.330Z,22.86
2023-03-07T11:35:18.809Z,17.05
2023-03-07T11:38:44.127Z,18.43
2023-03-07T11:41:58.879Z,20.06
2023-03-07T11:45:35.075Z,20.87
2023-03-07T11:49:08.732Z,20.44
2023-03-07T11:52:40.441Z,20.02
2023-03-07T11:56:16.465Z,16.83
2023-03-07T12:00:06.317Z,16.64
2023-03-07T12:04:07.189Z,17.17
2023-03-07T12:07:49.372Z,18.57
2023-03-07T12:11:19.616Z,19.28
2023-03-07T12:14:45.369Z,21.08
2023-03-07T12:18:15.684Z,19.94
2023-03-07T12:21:55.614Z,20.82
2023-03-07T12:25:29.145Z,19.67
2023-03-07T12:28:48.601Z,19.36
2023-03-07T12:32:03.760Z,19.18
2023-03-07T12:35:28.619Z,18.65
2023-03-07T12:38:50.055Z,17.70
2023-03-07T12:42:09.302Z,18.44
2023-03-07T12:45:20.870Z,20.98
2023-03-07T12:48:44.033Z,21.46
2023-03-07T12:51:58.610Z,19.24
2023-03-07T12:55:23.997Z,20.73
2023-03-07T12:58:46.159Z,18.70
2023-03-07T13:02:07.986Z,18.31
2023-03-07T13:05:24.297Z,17.88
2023-03-07T13:08:32.315Z,19.30
2023-03-07T13:11:39.131Z,19.42
2023-03-07T13:14:50.819Z,19.86
2023-03-07T13:18:03.041Z,18.07
2023-03-07T13:21:15.232Z,18.44
2023-03-07T13:24:38.041Z,19.37
2023-03-07T13:27:51.876Z,19.47
2023-03-07T13:31:43.122Z,18.79
2023-03-07T13:34:51.792Z,18.45
2023-03-07T13:38:02.301Z,17.26
2023-03-07T13:41:14.876Z,18.70
2023-03-07T13:44:41.137Z,20.59
2023-03-07T13:47:50.701Z,18.47
2023-03-07T13:51:12.666Z,19.90
2023-03-07T13:54:20.248Z,20.35
2023-03-07T13:57:38.125Z,19.96
2023-03-07T14:00:57.906Z,20.09
2023-03-07T14:04:24.256Z,20.42
2023-03-07T14:07:44.340Z,21.22
2023-03-07T14:10:51.084Z,21.94
2023-03-07T14:14:47.282Z,24.47
2023-03-07T14:18:22.876Z,22.59
2023-03-07T14:21:54.984Z,21.45
2023-03-07T14:25:40.989Z,19.02
2023-03-07T14:28:54.993Z,25.19
2023-03-07T14:32:03.709Z,21.44
2023-03-07T14:35:15.550Z,22.96
2023-03-07T14:38:28.670Z,21.36
2023-03-07T14:41:53.142Z,26.53
2023-03-07T14:45:21.740Z,21.68
2023-03-07T14:49:05.267Z,21.01
2023-03-07T14:52:30.452Z,21.62
2023-03-07T14:55:46.433Z,21.78
2023-03-07T14:58:58.796Z,22.31
2023-03-07T15:02:05.573Z,21.04
2023-03-07T15:05:19.871Z,23.16
2023-03-07T15:08:30.703Z,21.65
2023-03-07T15:11:45.590Z,22.20
2023-03-07T15:14:59.742Z,26.72
2023-03-07T15:18:17.591Z,23.55
2023-03-07T15:21:32.860Z,23.60
2023-03-07T15:24:46.330Z,24.97
2023-03-07T15:28:08.034Z,24.35
2023-03-07T15:31:15.503Z,24.80
2023-03-07T15:34:29.058Z,24.05
2023-03-07T15:37:37.788Z,22.92
2023-03-07T15:40:45.959Z,22.75
2023-03-07T15:44:09.080Z,22.51
2023-03-07T15:47:19.832Z,23.15
2023-03-07T15:50:30.199Z,23.66
2023-03-07T15:53:41.848Z,23.86
2023-03-07T15:56:48.109Z,25.59
2023-03-07T16:00:02.397Z,26.39
2023-03-07T16:03:28.708Z,27.31
2023-03-07T16:06:45.689Z,26.39
2023-03-07T16:09:52.004Z,25.11
2023-03-07T16:12:59.890Z,26.72
2023-03-07T16:16:24.018Z,27.59
2023-03-07T16:19:31.018Z,31.76
2023-03-07T16:22:36.948Z,32.87
2023-03-07T16:25:45.948Z,34.37
2023-03-07T16:28:52.739Z,36.29
2023-03-07T16:32:04.452Z,39.13
2023-03-07T16:35:19.496Z,39.80
2023-03-07T16:38:26.268Z,36.36
2023-03-07T16:41:32.280Z,35.97
2023-03-07T16:44:43.564Z,35.35
2023-03-07T16:47:56.211Z,37.23
2023-03-07T16:51:03.002Z,36.04
2023-03-07T16:54:13.250Z,37.49
2023-03-07T16:57:25.662Z,36.89
2023-03-07T17:00:33.530Z,37.14
2023-03-07T17:03:49.766Z,36.79
2023-03-07T17:07:04.335Z,36.26
2023-03-07T17:10:24.261Z,39.17
2023-03-07T17:13:30.328Z,41.34
2023-03-07T17:16:45.428Z,39.58
2023-03-07T17:19:55.146Z,38.69
2023-03-07T17:23:02.102Z,39.20
2023-03-07T17:26:09.882Z,38.00
2023-03-07T17:29:31.575Z,37.93
2023-03-07T17:32:37.711Z,38.90
2023-03-07T17:35:47.715Z,39.41
2023-03-07T17:38:53.827Z,40.25
2023-03-07T17:42:01.973Z,56.72
2023-03-07T17:45:09.695Z,48.69
2023-03-07T17:48:29.014Z,46.82
2023-03-07T17:51:37.660Z,43.59
2023-03-07T17:54:46.586Z,45.34
2023-03-07T17:57:55.288Z,46.79
2023-03-07T18:01:09.174Z,45.64
2023-03-07T18:04:15.222Z,45.39
2023-03-07T18:07:25.148Z,50.54
2023-03-07T18:10:31.464Z,53.57
2023-03-07T18:13:42.549Z,53.96
2023-03-07T18:16:56.317Z,59.26
2023-03-07T18:20:04.020Z,60.68
2023-03-07T18:23:12.665Z,67.61
2023-03-07T18:26:22.493Z,69.29
2023-03-07T18:29:30.963Z,64.30
2023-03-07T18:32:38.110Z,56.63
2023-03-07T18:35:44.362Z,56.28
2023-03-07T18:38:54.768Z,51.70
2023-03-07T18:42:00.700Z,54.00
2023-03-07T18:45:09.111Z,54.54
2023-03-07T18:48:16.566Z,52.74
2023-03-07T18:51:27.197Z,55.85
2023-03-07T18:54:35.787Z,60.13
2023-03-07T18:57:42.567Z,56.77
2023-03-07T19:00:48.917Z,50.06
2023-03-07T19:04:01.350Z,49.90
2023-03-07T19:07:08.963Z,52.00
2023-03-07T19:10:18.505Z,51.31
2023-03-07T19:13:24.651Z,46.82
2023-03-07T19:16:32.372Z,48.62
2023-03-07T19:19:38.995Z,53.45
2023-03-07T19:22:45.899Z,46.62
2023-03-07T19:25:54.662Z,44.58
2023-03-07T19:29:04.998Z,42.25
2023-03-07T19:32:11.232Z,37.45
2023-03-07T19:35:18.439Z,34.53
2023-03-07T19:38:24.628Z,34.00
2023-03-07T19:41:37.452Z,34.49
2023-03-07T19:44:43.933Z,35.20
2023-03-07T19:47:51.024Z,38.08
2023-03-07T19:50:57.830Z,42.61
2023-03-07T19:54:04.699Z,48.44
2023-03-07T19:57:15.218Z,46.66
2023-03-07T20:00:24.705Z,49.72
2023-03-07T20:03:30.826Z,54.00
2023-03-07T20:06:38.019Z,46.07
2023-03-07T20:09:44.225Z,53.61
2023-03-07T20:12:54.841Z,43.10
2023-03-07T20:16:01.072Z,41.38
2023-03-07T20:19:13.246Z,44.49
2023-03-07T20:22:20.868Z,42.78
2023-03-07T20:25:31.543Z,48.36
2023-03-07T20:28:41.453Z,49.09
2023-03-07T20:31:51.058Z,46.99
2023-03-07T20:34:59.696Z,56.40
2023-03-07T20:38:06.747Z,51.12
2023-03-07T20:41:17.894Z,47.27
2023-03-07T20:44:29.424Z,65.00
2023-03-07T20:51:10.321Z,57.50
2023-03-07T20:54:20.218Z,69.08
2023-03-07T20:57:27.380Z,69.05
2023-03-07T21:00:35.965Z,65.43
2023-03-07T21:03:42.874Z,52.48
2023-03-07T21:06:50.943Z,48.64
2023-03-07T21:09:57.645Z,37.24
2023-03-07T21:13:04.976Z,34.33
2023-03-07T21:16:18.224Z,32.50
2023-03-07T21:19:24.183Z,33.72
2023-03-07T21:22:31.239Z,36.73
2023-03-07T21:25:38.312Z,37.31
2023-03-07T21:28:45.385Z,37.19
2023-03-07T21:31:54.342Z,36.41
2023-03-07T21:35:01.177Z,34.57
2023-03-07T21:38:08.114Z,37.71
2023-03-07T21:41:16.234Z,34.83
2023-03-07T21:44:22.398Z,37.66
2023-03-07T21:47:34.075Z,40.44
2023-03-07T21:50:40.943Z,43.41
2023-03-07T21:53:47.757Z,39.35
2023-03-07T21:56:53.734Z,37.05
2023-03-07T22:00:00.398Z,35.72
2023-03-07T22:03:12.984Z,37.27
2023-03-07T22:06:19.770Z,35.92
2023-03-07T22:09:25.756Z,37.67
2023-03-07T22:12:33.129Z,34.92
2023-03-07T22:15:42.246Z,33.86
2023-03-07T22:18:56.044Z,29.76
2023-03-07T22:22:01.941Z,32.87
2023-03-07T22:25:10.178Z,34.77
2023-03-07T22:28:19.404Z,32.66
2023-03-07T22:31:27.216Z,33.65
2023-03-07T22:34:35.883Z,37.30
2023-03-07T22:37:42.618Z,38.93
2023-03-07T22:40:48.689Z,41.74
2023-03-07T22:43:56.807Z,41.21
2023-03-07T22:47:02.724Z,37.54
2023-03-07T22:50:14.295Z,36.60
2023-03-07T22:53:20.478Z,36.13
2023-03-07T22:56:30.411Z,36.33
2023-03-07T22:59:36.449Z,41.44
2023-03-07T23:02:43.199Z,39.50
2023-03-07T23:05:51.781Z,36.78
2023-03-07T23:08:59.937Z,40.35
2023-03-07T23:12:13.714Z,34.37
2023-03-07T23:15:21.334Z,35.37
2023-03-07T23:18:27.934Z,31.97
2023-03-07T23:21:37.995Z,32.83
2023-03-07T23:24:44.094Z,32.07
2023-03-07T23:27:50.928Z,32.90
2023-03-07T23:30:57.178Z,33.68
2023-03-07T23:34:07.314Z,35.01
2023-03-07T23:37:15.886Z,31.82
2023-03-07T23:40:24.442Z,32.43
2023-03-07T23:43:30.436Z,32.19
2023-03-07T23:46:37.720Z,31.56
2023-03-07T23:49:43.585Z,31.73
2023-03-07T23:52:53.198Z,31.73
2023-03-07T23:55:59.051Z,32.40
2023-03-07T23:59:05.814Z,34.55
